Time;durP1;ratioP1;P1;durP2;ratioP2;P2;SDS_P1;SDS_P2;PMS_P1;PMS_P2;Temp;Humidity;BMP_temperature;BMP_pressure;BME280_temperature;BME280_humidity;BME280_pressure;Samples;Min_cycle;Max_cycle;Signal;HPM_P1;HPM_P2
2022/08/07 00:01:00;;;;;;;16.98;8.07;;;21.90;99.90;;;;;;10291308;28;20249;-87
2022/08/07 00:06:23;;;;;;;13.55;7.32;;;21.90;99.90;;;;;;10290105;28;20210;-87
2022/08/07 00:11:34;;;;;;;14.27;7.53;;;21.90;99.90;;;;;;10288134;28;20226;-87
2022/08/07 00:16:49;;;;;;;15.23;7.43;;;21.90;99.90;;;;;;10291557;28;20249;-88
2022/08/07 00:21:51;;;;;;;10.40;6.85;;;21.90;99.90;;;;;;10290161;28;20201;-87
2022/08/07 00:27:03;;;;;;;12.45;7.78;;;21.90;99.90;;;;;;10290960;28;20300;-88
2022/08/07 00:32:12;;;;;;;10.52;6.80;;;21.90;99.90;;;;;;10267127;28;20271;-87
2022/08/07 00:37:16;;;;;;;12.40;6.75;;;21.90;99.90;;;;;;10288866;28;20308;-87
2022/08/07 00:42:19;;;;;;;10.10;6.35;;;21.90;99.90;;;;;;10288773;28;20288;-87
2022/08/07 00:47:31;;;;;;;11.20;6.88;;;21.80;99.90;;;;;;10289544;28;20237;-87
2022/08/07 00:52:53;;;;;;;10.48;6.47;;;21.90;99.90;;;;;;10275398;28;20297;-87
2022/08/07 00:57:56;;;;;;;10.90;5.85;;;21.90;99.90;;;;;;10289246;28;20293;-87
2022/08/07 01:02:59;;;;;;;9.32;6.15;;;21.80;99.90;;;;;;10302905;28;20288;-87
2022/08/07 01:08:02;;;;;;;11.30;6.32;;;21.80;99.90;;;;;;10286178;28;20241;-88
2022/08/07 01:13:05;;;;;;;11.93;6.85;;;21.80;99.90;;;;;;10284755;28;20667;-87
2022/08/07 01:18:07;;;;;;;11.65;6.40;;;21.80;99.90;;;;;;10287615;28;20315;-87
2022/08/07 01:23:13;;;;;;;7.55;5.22;;;21.80;99.90;;;;;;10288251;28;20670;-87
2022/08/07 01:28:17;;;;;;;11.60;6.18;;;21.80;99.90;;;;;;10274983;28;20255;-87
2022/08/07 01:33:23;;;;;;;9.80;6.32;;;21.90;99.90;;;;;;10271662;28;20209;-87
2022/08/07 01:38:47;;;;;;;7.53;4.88;;;21.80;99.90;;;;;;10279367;28;20682;-87
2022/08/07 01:43:56;;;;;;;9.02;5.40;;;21.80;99.90;;;;;;10272282;28;20221;-87
2022/08/07 01:49:00;;;;;;;6.97;4.25;;;21.80;99.90;;;;;;10287396;28;20261;-87
2022/08/07 01:54:08;;;;;;;8.10;4.93;;;21.80;99.90;;;;;;10270882;28;20257;-87
2022/08/07 01:59:44;;;;;;;8.50;4.95;;;21.80;99.90;;;;;;10285936;28;20257;-87
2022/08/07 02:04:56;;;;;;;8.70;5.20;;;21.80;99.90;;;;;;10285582;28;20236;-87
2022/08/07 02:10:06;;;;;;;8.82;4.93;;;21.80;99.90;;;;;;10271155;28;20256;-87
2022/08/07 02:15:21;;;;;;;7.82;5.18;;;21.80;99.90;;;;;;10286233;28;20202;-87
2022/08/07 02:20:29;;;;;;;9.93;4.63;;;21.70;99.90;;;;;;10285515;28;20261;-87
2022/08/07 02:25:35;;;;;;;8.00;4.78;;;21.80;99.90;;;;;;10268543;28;20598;-87
2022/08/07 02:31:01;;;;;;;8.43;4.95;;;21.70;99.90;;;;;;10285901;28;20206;-87
2022/08/07 02:36:27;;;;;;;6.75;4.53;;;21.70;99.90;;;;;;10272591;28;20197;-87
2022/08/07 02:41:44;;;;;;;7.75;4.28;;;21.70;99.90;;;;;;10284060;28;20705;-88
2022/08/07 02:46:55;;;;;;;7.15;4.32;;;21.70;99.90;;;;;;10285048;28;20292;-87
2022/08/07 02:52:02;;;;;;;5.70;3.85;;;21.70;99.90;;;;;;10285698;28;20225;-87
2022/08/07 02:57:10;;;;;;;4.85;3.55;;;21.70;99.90;;;;;;10285265;28;20214;-88
2022/08/07 03:02:16;;;;;;;4.57;4.10;;;21.70;99.90;;;;;;10284057;28;20221;-88
2022/08/07 03:07:19;;;;;;;6.78;4.25;;;21.70;99.90;;;;;;10284671;28;20233;-88
2022/08/07 03:12:45;;;;;;;5.75;4.68;;;21.70;99.90;;;;;;10285339;28;20205;-87
2022/08/07 03:17:51;;;;;;;5.32;4.47;;;21.70;99.90;;;;;;10284382;28;20245;-88
2022/08/07 03:22:58;;;;;;;6.38;4.38;;;21.70;99.90;;;;;;10276823;28;20210;-87
2022/08/07 03:28:04;;;;;;;4.97;3.72;;;21.70;99.90;;;;;;10291854;28;20631;-87
2022/08/07 03:33:27;;;;;;;5.90;3.30;;;21.70;99.90;;;;;;10293242;28;20626;-87
2022/08/07 03:38:43;;;;;;;6.03;3.40;;;21.70;99.90;;;;;;10291689;28;20295;-87
2022/08/07 03:43:48;;;;;;;6.25;3.90;;;21.70;99.90;;;;;;10261880;28;20264;-87
2022/08/07 03:49:02;;;;;;;5.75;3.65;;;21.70;99.90;;;;;;10291269;28;20209;-87
2022/08/07 03:54:11;;;;;;;4.72;3.83;;;21.70;99.90;;;;;;10291216;28;20225;-87
2022/08/07 03:59:37;;;;;;;4.20;3.03;;;21.70;99.90;;;;;;10289591;28;20280;-87
2022/08/07 04:05:00;;;;;;;6.20;3.55;;;21.70;99.90;;;;;;10290450;28;20304;-87
2022/08/07 04:10:04;;;;;;;5.20;3.08;;;21.70;99.90;;;;;;10285288;28;20201;-87
2022/08/07 04:15:08;;;;;;;4.60;3.10;;;21.70;99.90;;;;;;10290207;28;20233;-87
2022/08/07 04:20:13;;;;;;;4.70;3.13;;;21.70;99.90;;;;;;10306515;28;20311;-87
2022/08/07 04:25:18;;;;;;;4.43;3.67;;;21.80;99.90;;;;;;10306024;28;20299;-87
2022/08/07 04:30:25;;;;;;;3.58;2.65;;;21.80;99.90;;;;;;10305570;28;20300;-87
2022/08/07 04:36:10;;;;;;;4.88;3.20;;;21.70;99.90;;;;;;10301537;28;20307;-86
2022/08/07 04:41:13;;;;;;;3.70;2.92;;;21.80;99.90;;;;;;10298609;28;20623;-87
2022/08/07 04:46:38;;;;;;;4.35;3.28;;;21.80;99.90;;;;;;10293209;28;20241;-87
2022/08/07 04:52:07;;;;;;;4.10;2.55;;;21.80;99.90;;;;;;10303763;28;20697;-86
2022/08/07 04:57:49;;;;;;;3.00;2.53;;;21.80;99.90;;;;;;10307082;28;20205;-87
2022/08/07 05:03:36;;;;;;;3.95;3.15;;;21.80;99.90;;;;;;10319099;28;20236;-87
2022/08/07 05:09:01;;;;;;;3.22;2.47;;;21.90;99.90;;;;;;10274902;28;20234;-87
2022/08/07 05:14:29;;;;;;;3.95;2.95;;;21.80;99.90;;;;;;10273753;28;20308;-87
2022/08/07 05:19:53;;;;;;;4.28;3.00;;;21.80;99.90;;;;;;10296156;28;20304;-87
2022/08/07 05:24:59;;;;;;;3.28;2.40;;;21.80;99.90;;;;;;10279106;28;20207;-87
2022/08/07 05:30:05;;;;;;;3.83;3.10;;;21.90;99.90;;;;;;10272125;28;20209;-87
2022/08/07 05:35:13;;;;;;;5.63;2.83;;;21.90;99.90;;;;;;10271285;28;20312;-87
2022/08/07 05:40:16;;;;;;;3.95;2.92;;;21.90;99.90;;;;;;10286391;28;20657;-88
2022/08/07 05:45:23;;;;;;;3.35;2.63;;;21.90;99.90;;;;;;10287398;28;20298;-87
2022/08/07 05:50:47;;;;;;;2.83;2.40;;;22.00;99.90;;;;;;10286140;28;20209;-87
2022/08/07 05:55:55;;;;;;;3.65;2.65;;;22.00;99.90;;;;;;10270907;28;20265;-87
2022/08/07 06:01:13;;;;;;;2.30;2.05;;;22.00;99.90;;;;;;10285676;28;20283;-87
2022/08/07 06:06:20;;;;;;;2.78;2.33;;;22.00;99.90;;;;;;10285881;28;20621;-87
2022/08/07 06:11:27;;;;;;;4.47;2.80;;;22.00;99.90;;;;;;10255178;28;20287;-87
2022/08/07 06:16:32;;;;;;;3.30;2.17;;;22.00;99.90;;;;;;10265106;28;20987;-87
2022/08/07 06:21:37;;;;;;;2.80;2.17;;;22.00;99.90;;;;;;10270558;28;20261;-88
2022/08/07 06:27:00;;;;;;;2.40;2.17;;;22.10;99.90;;;;;;10285403;28;20265;-87
2022/08/07 06:32:06;;;;;;;4.35;2.70;;;22.10;99.90;;;;;;10283922;28;20245;-88
2022/08/07 06:37:09;;;;;;;5.18;2.55;;;22.20;99.90;;;;;;10284740;28;20686;-87
2022/08/07 06:42:35;;;;;;;2.30;1.85;;;22.20;99.90;;;;;;10286971;28;20401;-88
2022/08/07 06:48:17;;;;;;;3.75;2.63;;;22.20;99.90;;;;;;10251659;28;20226;-88
2022/08/07 06:53:28;;;;;;;3.22;2.55;;;22.30;99.90;;;;;;10242470;28;20257;-87
2022/08/07 06:58:52;;;;;;;2.92;2.10;;;22.40;99.90;;;;;;10248546;28;20250;-88
2022/08/07 07:04:19;;;;;;;2.92;2.28;;;22.50;99.90;;;;;;10258840;28;20219;-88
2022/08/07 07:09:34;;;;;;;2.67;2.40;;;22.60;99.90;;;;;;10242254;29;20265;-88
2022/08/07 07:14:49;;;;;;;2.50;2.30;;;22.70;99.90;;;;;;10237906;28;20218;-88
2022/08/07 07:19:56;;;;;;;3.72;2.25;;;22.70;99.90;;;;;;10294942;28;20221;-87
2022/08/07 07:25:03;;;;;;;2.78;2.50;;;22.80;99.90;;;;;;10300647;28;20667;-88
2022/08/07 07:30:32;;;;;;;4.07;2.42;;;22.80;99.90;;;;;;10273643;28;20214;-87
2022/08/07 07:35:44;;;;;;;4.22;2.10;;;22.90;99.90;;;;;;10280060;28;20277;-88
2022/08/07 07:41:10;;;;;;;3.40;1.95;;;22.90;99.90;;;;;;10274232;28;20288;-89
2022/08/07 07:46:16;;;;;;;2.00;1.80;;;22.80;99.90;;;;;;10288578;28;20233;-89
2022/08/07 07:51:41;;;;;;;2.80;2.25;;;23.00;99.90;;;;;;10249218;28;20258;-90
2022/08/07 07:57:01;;;;;;;2.38;1.92;;;23.00;99.90;;;;;;10290273;28;20229;-89
2022/08/07 08:02:05;;;;;;;2.80;2.40;;;23.00;99.90;;;;;;10291551;28;20292;-89
2022/08/07 08:07:13;;;;;;;4.57;2.13;;;23.10;99.90;;;;;;10291366;28;20235;-89
2022/08/07 08:12:21;;;;;;;2.80;2.10;;;23.20;99.90;;;;;;10296242;28;20260;-90
2022/08/07 08:17:45;;;;;;;2.20;2.00;;;23.10;99.90;;;;;;10291647;28;20237;-90
2022/08/07 08:28:30;;;;;;;2.90;2.35;;;23.40;99.90;;;;;;10292252;28;20233;-90
2022/08/07 08:33:41;;;;;;;2.85;2.08;;;23.40;99.90;;;;;;10289147;28;20233;-90
2022/08/07 08:38:51;;;;;;;2.50;1.80;;;23.50;99.90;;;;;;10289427;28;20315;-90
2022/08/07 08:44:13;;;;;;;3.10;2.80;;;23.60;99.90;;;;;;9943766;28;9999900;-89
2022/08/07 08:49:35;;;;;;;3.22;2.45;;;23.60;99.90;;;;;;10286018;28;20244;-90
2022/08/07 08:55:08;;;;;;;2.40;2.20;;;23.50;99.90;;;;;;10273730;28;20285;-90
2022/08/07 09:00:24;;;;;;;4.32;3.22;;;23.40;99.90;;;;;;10285368;28;20777;-90
2022/08/07 09:05:39;;;;;;;2.72;2.53;;;23.30;99.90;;;;;;10269085;28;20245;-90
2022/08/07 09:10:51;;;;;;;2.55;2.15;;;23.30;99.90;;;;;;10283808;28;20241;-89
2022/08/07 09:16:06;;;;;;;2.55;2.33;;;23.10;99.90;;;;;;10273068;28;20237;-89
2022/08/07 09:21:57;;;;;;;2.92;2.58;;;23.60;99.90;;;;;;10285191;28;20276;-89
2022/08/07 09:27:39;;;;;;;2.50;2.20;;;23.30;99.90;;;;;;10276660;28;20946;-89
2022/08/07 09:33:25;;;;;;;2.38;2.17;;;23.30;99.90;;;;;;10281235;28;20255;-89
2022/08/07 09:39:24;;;;;;;2.60;1.70;;;23.40;99.90;;;;;;10288603;28;20209;-90
2022/08/07 09:44:50;;;;;;;2.72;2.50;;;23.00;99.90;;;;;;10289227;28;20232;-89
2022/08/07 09:50:45;;;;;;;2.45;2.22;;;23.30;99.90;;;;;;10274148;28;20217;-89
2022/08/07 09:56:28;;;;;;;2.40;2.20;;;23.50;99.90;;;;;;10271920;28;20630;-89
2022/08/07 10:02:27;;;;;;;3.85;2.03;;;23.60;99.90;;;;;;10286939;28;20655;-89
2022/08/07 10:07:54;;;;;;;3.67;2.45;;;23.60;91.80;;;;;;10245024;28;20672;-89
2022/08/07 10:13:12;;;;;;;2.55;2.20;;;23.80;98.70;;;;;;10206604;29;20234;-90
2022/08/07 10:18:40;;;;;;;11.95;3.10;;;23.90;99.90;;;;;;10227073;29;20242;-89
2022/08/07 10:23:51;;;;;;;2.60;2.38;;;23.60;99.90;;;;;;10233016;28;20226;-90
2022/08/07 10:29:40;;;;;;;3.60;2.28;;;23.50;99.90;;;;;;10229620;28;20237;-87
2022/08/07 10:35:07;;;;;;;2.67;1.55;;;23.30;94.20;;;;;;10233250;28;20316;-87
2022/08/07 10:40:20;;;;;;;2.60;2.40;;;23.10;95.10;;;;;;10253347;28;20342;-87
2022/08/07 10:45:56;;;;;;;4.05;1.48;;;23.20;99.90;;;;;;10255657;28;20269;-87
2022/08/07 10:51:27;;;;;;;2.83;2.45;;;23.00;99.90;;;;;;10285643;28;20265;-87
2022/08/07 10:56:58;;;;;;;1.67;1.58;;;23.50;99.90;;;;;;10291110;28;20249;-87
2022/08/07 11:02:32;;;;;;;2.75;2.40;;;23.90;99.80;;;;;;10291971;28;20253;-87
2022/08/07 11:07:51;;;;;;;2.47;2.28;;;24.00;99.90;;;;;;10291340;28;20233;-87
2022/08/07 11:13:31;;;;;;;2.65;1.70;;;24.20;99.90;;;;;;10290796;28;20236;-87
2022/08/07 11:19:10;;;;;;;3.22;2.50;;;24.00;88.20;;;;;;10292887;28;20287;-87
2022/08/07 11:24:29;;;;;;;2.45;2.25;;;24.00;99.90;;;;;;10290737;28;20229;-87
2022/08/07 11:29:51;;;;;;;2.35;2.15;;;23.70;99.90;;;;;;10305137;28;20283;-87
2022/08/07 11:35:51;;;;;;;2.20;2.00;;;23.70;99.90;;;;;;10290650;28;20265;-87
2022/08/07 11:41:08;;;;;;;3.05;2.47;;;23.80;99.90;;;;;;10297293;28;20279;-87
2022/08/07 11:46:31;;;;;;;3.30;1.25;;;23.80;99.90;;;;;;10292553;28;20381;-87
2022/08/07 11:52:04;;;;;;;3.28;2.60;;;23.80;95.80;;;;;;10254950;28;20303;-87
2022/08/07 11:57:25;;;;;;;2.10;1.90;;;23.90;99.90;;;;;;10270483;28;20287;-85
2022/08/07 12:03:46;;;;;;;2.83;2.63;;;24.00;96.00;;;;;;10277319;28;20724;-86
2022/08/07 12:09:04;;;;;;;2.95;2.10;;;24.10;99.90;;;;;;10175463;29;20369;-86
2022/08/07 12:14:26;;;;;;;2.30;2.10;;;24.20;96.30;;;;;;10200123;29;20243;-86
2022/08/07 12:19:52;;;;;;;4.93;2.03;;;24.40;99.20;;;;;;10147552;29;20807;-86
2022/08/07 12:31:10;;;;;;;2.17;1.77;;;23.90;98.60;;;;;;10160885;29;20235;-86
2022/08/07 12:36:21;;;;;;;5.18;1.48;;;24.00;98.50;;;;;;10168205;28;20686;-86
2022/08/07 12:41:37;;;;;;;2.70;1.92;;;24.10;95.20;;;;;;10281568;28;20287;-86
2022/08/07 12:47:14;;;;;;;1.65;1.45;;;23.80;99.00;;;;;;10270802;28;20686;-86
2022/08/07 12:52:54;;;;;;;2.50;1.85;;;23.60;91.70;;;;;;10265210;28;20309;-86
2022/08/07 12:58:00;;;;;;;2.22;2.03;;;23.40;99.90;;;;;;10273423;28;20233;-86
2022/08/07 13:03:11;;;;;;;2.70;2.30;;;23.60;99.90;;;;;;10288388;28;20261;-86
2022/08/07 13:08:57;;;;;;;3.28;1.98;;;23.70;99.90;;;;;;10259457;28;20242;-86
2022/08/07 13:14:24;;;;;;;2.35;2.15;;;24.00;93.10;;;;;;10286179;28;20241;-85
2022/08/07 13:19:58;;;;;;;2.10;1.90;;;24.10;98.10;;;;;;10272219;28;20249;-86
2022/08/07 13:25:12;;;;;;;3.25;1.25;;;24.30;98.30;;;;;;10288267;28;20264;-86
2022/08/07 13:30:32;;;;;;;1.52;1.10;;;24.40;96.60;;;;;;10288699;28;20276;-86
2022/08/07 13:35:48;;;;;;;2.72;1.55;;;24.50;84.20;;;;;;10290250;28;20285;-86
2022/08/07 13:41:49;;;;;;;3.22;2.13;;;24.50;97.10;;;;;;10273079;28;20296;-85
2022/08/07 13:46:58;;;;;;;2.05;1.85;;;24.50;93.20;;;;;;10258086;28;20557;-86
2022/08/07 13:52:07;;;;;;;2.58;2.38;;;24.30;98.90;;;;;;10248668;28;20296;-85
2022/08/07 13:57:32;;;;;;;2.08;1.40;;;24.30;99.20;;;;;;10266658;28;20233;-85
2022/08/07 14:02:42;;;;;;;3.45;2.15;;;24.30;97.80;;;;;;10275581;28;20257;-86
2022/08/07 14:07:58;;;;;;;2.05;1.52;;;24.00;98.90;;;;;;10285576;28;20621;-86
2022/08/07 14:13:04;;;;;;;2.08;1.88;;;23.80;93.40;;;;;;10291908;28;20225;-85
2022/08/07 14:18:14;;;;;;;1.38;1.10;;;23.90;98.80;;;;;;10270199;28;20209;-85
2022/08/07 14:23:35;;;;;;;1.70;1.60;;;23.80;91.60;;;;;;10287394;28;20316;-85
2022/08/07 14:29:01;;;;;;;2.42;2.22;;;24.00;96.50;;;;;;10287160;28;20425;-86
2022/08/07 14:34:27;;;;;;;2.22;2.03;;;23.90;99.90;;;;;;10266160;28;20244;-86
2022/08/07 14:39:37;;;;;;;2.17;2.03;;;23.60;97.60;;;;;;10286295;28;20209;-86
2022/08/07 14:45:03;;;;;;;2.33;2.13;;;23.70;99.90;;;;;;9950060;28;10000332;-85
2022/08/07 14:50:25;;;;;;;2.30;2.08;;;23.60;99.90;;;;;;10282399;28;20241;-86
2022/08/07 14:55:33;;;;;;;2.13;1.92;;;23.40;99.90;;;;;;10281712;28;20790;-86
2022/08/07 15:00:58;;;;;;;2.33;2.13;;;23.50;99.90;;;;;;10281597;28;20319;-85
2022/08/07 15:06:26;;;;;;;2.17;1.98;;;23.70;99.90;;;;;;10271545;28;20839;-85
2022/08/07 15:11:31;;;;;;;2.72;2.00;;;23.70;99.90;;;;;;10279978;28;20677;-84
2022/08/07 15:17:09;;;;;;;2.55;2.35;;;23.80;94.00;;;;;;10282995;28;20295;-84
2022/08/07 15:22:13;;;;;;;2.67;2.30;;;23.90;99.90;;;;;;10298482;28;20237;-84
2022/08/07 15:27:39;;;;;;;1.83;1.48;;;24.00;99.90;;;;;;10288934;28;20198;-84
2022/08/07 15:33:04;;;;;;;2.10;1.77;;;24.10;98.90;;;;;;10303869;28;20571;-85
2022/08/07 15:38:30;;;;;;;2.50;2.30;;;24.20;99.60;;;;;;10288529;28;20209;-84
2022/08/07 15:44:01;;;;;;;2.63;2.08;;;24.20;99.30;;;;;;10297972;28;20214;-86
2022/08/07 15:49:09;;;;;;;2.88;1.63;;;24.00;99.90;;;;;;10271369;28;20260;-86
2022/08/07 15:54:16;;;;;;;2.30;2.00;;;23.90;95.60;;;;;;10289011;28;20230;-86
2022/08/07 15:59:25;;;;;;;1.95;1.75;;;23.80;99.90;;;;;;10292524;28;20236;-86
2022/08/07 16:04:45;;;;;;;2.17;1.95;;;23.70;99.90;;;;;;10303003;28;20214;-85
2022/08/07 16:09:55;;;;;;;2.03;1.92;;;23.70;99.90;;;;;;10300270;28;20272;-85
2022/08/07 16:15:05;;;;;;;2.72;2.20;;;23.60;99.90;;;;;;10300754;28;20748;-85
2022/08/07 16:20:40;;;;;;;2.83;2.63;;;23.50;99.90;;;;;;10298378;28;20209;-85
2022/08/07 16:26:01;;;;;;;2.00;1.90;;;23.70;99.90;;;;;;10297309;28;20293;-85
2022/08/07 16:31:43;;;;;;;2.17;1.23;;;23.60;99.90;;;;;;10296083;28;20209;-85
2022/08/07 16:37:36;;;;;;;2.08;1.90;;;23.50;99.90;;;;;;10305786;28;20253;-85
2022/08/07 16:42:58;;;;;;;3.83;2.25;;;23.60;94.00;;;;;;10270101;28;20246;-85
2022/08/07 16:48:38;;;;;;;2.83;2.60;;;23.70;99.90;;;;;;10282118;28;20228;-85
2022/08/07 16:54:25;;;;;;;2.45;1.80;;;23.60;99.90;;;;;;10290193;28;20284;-86
2022/08/07 16:59:50;;;;;;;2.45;2.10;;;23.60;99.90;;;;;;10290418;28;20214;-85
2022/08/07 17:05:32;;;;;;;2.20;2.00;;;23.60;99.90;;;;;;10290882;28;20331;-85
2022/08/07 17:10:56;;;;;;;1.70;1.35;;;23.60;99.90;;;;;;10288134;28;20299;-85
2022/08/07 17:16:47;;;;;;;6.53;1.20;;;23.70;98.40;;;;;;10288108;28;20272;-95
2022/08/07 17:22:35;;;;;;;7.82;2.53;;;23.50;94.70;;;;;;10319769;28;20230;-95
2022/08/07 17:28:07;;;;;;;7.82;1.83;;;23.70;96.50;;;;;;10326049;28;20216;-94
2022/08/07 17:33:26;;;;;;;3.13;1.50;;;23.70;97.30;;;;;;10306674;28;20288;-92
2022/08/07 17:39:11;;;;;;;1.77;1.00;;;23.20;96.60;;;;;;10294107;28;20190;-92
2022/08/07 17:44:26;;;;;;;1.60;1.10;;;22.60;92.30;;;;;;10303587;28;20229;-92
2022/08/07 17:49:54;;;;;;;2.42;1.00;;;22.40;95.30;;;;;;10287718;28;20789;-93
2022/08/07 17:55:14;;;;;;;3.03;1.42;;;21.90;95.70;;;;;;10287843;28;20730;-93
2022/08/07 18:00:44;;;;;;;2.83;1.40;;;21.20;98.40;;;;;;10288287;28;20581;-93
2022/08/07 18:06:02;;;;;;;1.77;0.82;;;20.80;98.10;;;;;;10288320;28;20210;-93
2022/08/07 18:11:49;;;;;;;3.03;1.10;;;20.20;98.60;;;;;;10250564;29;20215;-91
2022/08/07 18:17:26;;;;;;;2.08;1.20;;;20.00;99.90;;;;;;10275706;28;20209;-90
2022/08/07 18:23:04;;;;;;;5.13;1.40;;;20.70;99.90;;;;;;10294302;28;20213;-90
2022/08/07 18:28:37;;;;;;;4.95;0.85;;;21.40;99.90;;;;;;10267660;28;20906;-91
2022/08/07 18:34:29;;;;;;;3.10;1.45;;;21.40;99.90;;;;;;10268811;28;20241;-91
2022/08/07 18:40:01;;;;;;;4.40;2.28;;;21.00;99.90;;;;;;10264595;28;20233;-89
2022/08/07 18:45:13;;;;;;;1.35;1.20;;;21.50;99.90;;;;;;9924814;28;9999976;-88
2022/08/07 18:51:13;;;;;;;1.75;1.25;;;21.80;99.90;;;;;;10272142;28;20686;-88
2022/08/07 18:56:27;;;;;;;3.90;1.60;;;21.90;99.90;;;;;;10270131;28;20281;-88
2022/08/07 19:01:48;;;;;;;6.63;1.30;;;22.00;99.90;;;;;;10261926;28;20249;-88
2022/08/07 19:07:29;;;;;;;4.90;1.42;;;22.00;99.90;;;;;;10266836;28;20230;-88
2022/08/07 19:12:48;;;;;;;2.22;1.60;;;22.10;99.90;;;;;;10274828;28;20709;-88
2022/08/07 19:18:21;;;;;;;1.75;1.25;;;22.10;99.90;;;;;;10268944;28;20249;-88
2022/08/07 19:23:43;;;;;;;1.58;1.25;;;22.10;99.90;;;;;;10290488;28;20280;-88
2022/08/07 19:29:05;;;;;;;2.30;1.65;;;22.10;99.90;;;;;;10289023;28;20284;-88
2022/08/07 19:34:30;;;;;;;4.63;1.58;;;22.10;99.90;;;;;;10282714;28;20241;-87
2022/08/07 19:39:41;;;;;;;1.90;1.48;;;22.10;99.90;;;;;;10269882;28;20246;-88
2022/08/07 19:45:05;;;;;;;1.70;1.48;;;22.10;99.90;;;;;;10277766;28;20276;-88
2022/08/07 19:50:11;;;;;;;2.50;1.30;;;22.10;99.90;;;;;;10291940;28;20306;-88
2022/08/07 19:55:34;;;;;;;2.28;1.40;;;22.10;99.90;;;;;;10289134;28;20311;-88
2022/08/07 20:00:57;;;;;;;1.75;1.30;;;22.10;99.90;;;;;;10289953;28;20233;-87
2022/08/07 20:06:04;;;;;;;2.28;1.33;;;22.00;99.90;;;;;;10290010;28;20237;-87
2022/08/07 20:11:10;;;;;;;1.77;1.50;;;22.00;99.90;;;;;;10293141;28;20240;-87
2022/08/07 20:16:28;;;;;;;1.80;1.33;;;22.00;99.90;;;;;;10289707;28;20244;-87
2022/08/07 20:21:42;;;;;;;1.73;1.52;;;22.00;99.90;;;;;;10290921;28;20240;-87
2022/08/07 20:26:53;;;;;;;2.58;1.23;;;22.00;99.90;;;;;;10291941;28;20721;-88
2022/08/07 20:31:59;;;;;;;2.15;1.50;;;22.00;99.90;;;;;;10288805;28;20618;-87
2022/08/07 20:37:04;;;;;;;2.17;1.25;;;22.00;99.90;;;;;;10314969;28;20205;-87
2022/08/07 20:42:11;;;;;;;2.05;1.33;;;22.00;99.90;;;;;;10290150;28;20304;-87
2022/08/07 20:47:18;;;;;;;1.83;1.17;;;21.90;99.90;;;;;;10290421;28;20233;-86
2022/08/07 20:52:29;;;;;;;1.73;1.30;;;21.90;99.90;;;;;;10289444;28;20261;-87
2022/08/07 20:57:56;;;;;;;1.55;1.45;;;21.90;99.90;;;;;;10288882;28;20283;-86
2022/08/07 21:03:06;;;;;;;1.88;1.58;;;21.90;99.90;;;;;;10273890;28;20303;-86
2022/08/07 21:08:13;;;;;;;2.97;1.77;;;21.90;99.90;;;;;;10287637;28;20233;-86
2022/08/07 21:13:20;;;;;;;3.13;1.55;;;21.90;99.90;;;;;;10288600;28;20316;-86
2022/08/07 21:18:44;;;;;;;3.08;1.73;;;21.90;99.90;;;;;;10286977;28;20241;-87
2022/08/07 21:24:11;;;;;;;2.30;1.15;;;21.90;99.90;;;;;;10300668;28;20283;-87
2022/08/07 21:29:29;;;;;;;2.40;1.60;;;21.90;99.90;;;;;;10288131;28;20226;-87
2022/08/07 21:34:50;;;;;;;1.80;1.33;;;21.80;99.90;;;;;;10287306;28;20681;-87
2022/08/07 21:40:02;;;;;;;1.70;1.60;;;21.90;99.90;;;;;;10288200;28;20631;-87
2022/08/07 21:45:15;;;;;;;2.45;1.20;;;21.80;99.90;;;;;;10287101;28;20253;-87
2022/08/07 21:50:45;;;;;;;2.20;1.40;;;21.80;99.90;;;;;;10285168;28;20257;-87
2022/08/07 21:55:59;;;;;;;1.45;1.35;;;21.90;99.90;;;;;;10295845;28;20291;-87
2022/08/07 22:01:18;;;;;;;1.80;1.60;;;21.80;99.90;;;;;;10296309;28;20205;-87
2022/08/07 22:06:42;;;;;;;1.30;1.20;;;21.80;99.90;;;;;;10287567;28;20670;-87
2022/08/07 22:11:47;;;;;;;1.48;1.23;;;21.80;99.90;;;;;;10286326;28;20283;-86
2022/08/07 22:17:13;;;;;;;1.90;1.60;;;21.80;99.90;;;;;;10285444;28;20271;-86
2022/08/07 22:22:24;;;;;;;2.50;1.63;;;21.80;99.90;;;;;;10287678;28;20253;-87
2022/08/07 22:27:57;;;;;;;2.97;1.70;;;21.80;99.90;;;;;;10286336;28;20237;-86
2022/08/07 22:33:30;;;;;;;1.75;1.50;;;21.80;99.90;;;;;;10274304;28;20237;-87
2022/08/07 22:39:03;;;;;;;4.95;1.73;;;21.80;99.90;;;;;;10286223;28;20229;-87
2022/08/07 22:44:12;;;;;;;1.42;1.17;;;21.80;99.90;;;;;;10285640;28;20260;-86
2022/08/07 22:49:53;;;;;;;2.67;1.60;;;21.70;99.90;;;;;;10286033;28;20225;-87
2022/08/07 22:55:21;;;;;;;1.75;1.50;;;21.80;99.90;;;;;;10285606;28;20315;-87
2022/08/07 23:00:41;;;;;;;1.83;1.30;;;21.70;99.90;;;;;;10285466;28;20233;-87
2022/08/07 23:06:02;;;;;;;2.70;1.70;;;21.70;99.90;;;;;;10285976;28;20302;-87
2022/08/07 23:11:29;;;;;;;1.30;1.20;;;21.70;99.90;;;;;;10284724;28;20234;-87
2022/08/07 23:17:07;;;;;;;3.75;1.70;;;21.70;99.90;;;;;;10284901;28;20237;-87
2022/08/07 23:22:17;;;;;;;1.85;1.67;;;21.70;99.90;;;;;;10286505;28;20241;-87
2022/08/07 23:27:26;;;;;;;2.75;1.67;;;21.70;99.90;;;;;;10285109;28;20599;-87
2022/08/07 23:32:57;;;;;;;2.10;1.42;;;21.70;99.90;;;;;;10285540;28;20276;-87
2022/08/07 23:38:45;;;;;;;1.92;1.45;;;21.70;99.90;;;;;;10275405;28;20245;-87
2022/08/07 23:44:33;;;;;;;1.58;1.38;;;21.70;99.90;;;;;;10264128;28;20277;-86
2022/08/07 23:49:38;;;;;;;2.03;1.70;;;21.70;99.90;;;;;;10282692;28;20667;-87
2022/08/07 23:55:09;;;;;;;1.83;1.40;;;21.70;99.90;;;;;;10290474;28;20256;-87
